createdAt,value
2023-09-01T00:00:14.160Z,3.93
2023-09-01T00:00:47.055Z,4.47
2023-09-01T00:01:19.075Z,4.77
2023-09-01T00:01:51.120Z,4.33
2023-09-01T00:02:23.047Z,4.07
2023-09-01T00:02:55.102Z,4.10
2023-09-01T00:03:27.124Z,4.47
2023-09-01T00:03:59.065Z,4.00
2023-09-01T00:04:31.331Z,4.10
2023-09-01T00:05:04.241Z,4.43
2023-09-01T00:05:37.571Z,4.40
2023-09-01T00:06:13.967Z,4.67
2023-09-01T00:06:45.955Z,4.37
2023-09-01T00:07:17.870Z,4.30
2023-09-01T00:07:49.801Z,5.30
2023-09-01T00:08:21.923Z,6.13
2023-09-01T00:08:53.838Z,5.67
2023-09-01T00:09:25.744Z,5.63
2023-09-01T00:09:57.653Z,5.37
2023-09-01T00:10:30.244Z,4.73
2023-09-01T00:11:02.170Z,4.93
2023-09-01T00:11:34.119Z,4.43
2023-09-01T00:12:06.494Z,4.37
2023-09-01T00:12:38.421Z,4.47
2023-09-01T00:13:10.355Z,4.23
2023-09-01T00:13:42.657Z,4.63
2023-09-01T00:14:14.602Z,3.93
2023-09-01T00:14:46.511Z,4.17
2023-09-01T00:15:18.753Z,4.30
2023-09-01T00:15:50.749Z,4.67
2023-09-01T00:16:22.694Z,4.07
2023-09-01T00:16:54.631Z,4.37
2023-09-01T00:17:26.627Z,4.07
2023-09-01T00:17:59.182Z,3.70
2023-09-01T00:18:31.570Z,3.60
2023-09-01T00:19:03.659Z,4.00
2023-09-01T00:19:36.054Z,4.47
2023-09-01T00:20:08.538Z,4.47
2023-09-01T00:20:40.516Z,3.97
2023-09-01T00:21:12.495Z,3.90
2023-09-01T00:21:44.396Z,4.10
2023-09-01T00:22:16.316Z,4.07
2023-09-01T00:22:48.228Z,4.07
2023-09-01T00:23:20.189Z,4.10
2023-09-01T00:23:52.100Z,4.03
2023-09-01T00:24:24.057Z,3.73
2023-09-01T00:24:55.980Z,3.73
2023-09-01T00:25:27.910Z,4.03
2023-09-01T00:26:01.239Z,4.27
2023-09-01T00:26:33.174Z,3.90
2023-09-01T00:27:05.430Z,3.67
2023-09-01T00:27:38.808Z,3.90
2023-09-01T00:28:10.782Z,3.80
2023-09-01T00:28:42.675Z,3.73
2023-09-01T00:29:14.594Z,3.97
2023-09-01T00:29:46.538Z,3.67
2023-09-01T00:30:18.452Z,3.57
2023-09-01T00:30:55.161Z,3.30
2023-09-01T00:31:27.093Z,3.70
2023-09-01T00:31:59.007Z,4.00
2023-09-01T00:32:30.932Z,4.07
2023-09-01T00:33:02.930Z,3.47
2023-09-01T00:33:34.934Z,3.23
2023-09-01T00:34:06.987Z,3.60
2023-09-01T00:34:38.885Z,3.57
2023-09-01T00:35:11.776Z,3.80
2023-09-01T00:35:43.749Z,3.87
2023-09-01T00:36:15.724Z,3.97
2023-09-01T00:36:50.466Z,4.20
2023-09-01T00:37:22.368Z,4.20
2023-09-01T00:37:54.309Z,4.50
2023-09-01T00:38:26.326Z,3.83
2023-09-01T00:38:58.227Z,4.33
2023-09-01T00:39:30.133Z,4.00
2023-09-01T00:40:02.080Z,4.10
2023-09-01T00:40:34.019Z,4.30
2023-09-01T00:41:05.971Z,4.03
2023-09-01T00:41:38.069Z,4.33
2023-09-01T00:42:10.005Z,4.03
2023-09-01T00:42:41.926Z,4.23
2023-09-01T00:43:13.825Z,3.73
2023-09-01T00:43:45.761Z,3.93
2023-09-01T00:44:17.691Z,4.37
2023-09-01T00:44:50.198Z,3.67
2023-09-01T00:45:22.170Z,4.33
2023-09-01T00:45:54.702Z,4.07
2023-09-01T00:46:27.255Z,4.40
2023-09-01T00:46:59.284Z,3.63
2023-09-01T00:47:31.352Z,3.83
2023-09-01T00:48:03.816Z,4.03
2023-09-01T00:48:35.900Z,4.50
2023-09-01T00:49:07.845Z,4.37
2023-09-01T00:49:39.853Z,4.57
2023-09-01T00:50:12.425Z,4.20
2023-09-01T00:50:44.805Z,4.13
2023-09-01T00:51:16.757Z,4.17
2023-09-01T00:51:49.106Z,4.03
2023-09-01T00:52:21.129Z,3.80
2023-09-01T00:52:53.062Z,4.07
2023-09-01T00:53:26.283Z,3.83
2023-09-01T00:53:58.522Z,3.47
2023-09-01T00:54:32.243Z,4.03
2023-09-01T00:55:04.514Z,4.10
2023-09-01T00:55:37.293Z,3.87
2023-09-01T00:56:10.416Z,3.83
2023-09-01T00:56:43.706Z,4.60
2023-09-01T00:57:16.089Z,4.83
2023-09-01T00:57:48.008Z,3.80
2023-09-01T00:58:20.429Z,4.23
2023-09-01T00:58:52.389Z,3.87
2023-09-01T00:59:25.321Z,3.67
2023-09-01T00:59:58.176Z,3.73
2023-09-01T01:00:33.717Z,4.43
2023-09-01T01:01:06.021Z,4.50
2023-09-01T01:01:38.089Z,3.90
2023-09-01T01:02:10.086Z,3.60
2023-09-01T01:02:42.111Z,4.07
2023-09-01T01:03:14.366Z,4.10
2023-09-01T01:03:46.810Z,4.70
2023-09-01T01:04:21.349Z,4.40
2023-09-01T01:04:55.151Z,4.67
2023-09-01T01:05:46.251Z,4.50
2023-09-01T01:06:18.149Z,4.53
2023-09-01T01:07:09.731Z,4.47
2023-09-01T01:07:54.736Z,3.90
2023-09-01T01:08:38.874Z,4.07
2023-09-01T01:09:25.904Z,3.83
2023-09-01T01:10:17.399Z,3.83
2023-09-01T01:10:57.596Z,3.93
2023-09-01T01:11:48.176Z,3.83
2023-09-01T01:12:40.566Z,3.77
2023-09-01T01:13:15.195Z,4.30
2023-09-01T01:13:49.123Z,4.03
2023-09-01T01:14:26.346Z,4.30
2023-09-01T01:15:02.703Z,3.63
2023-09-01T01:15:35.687Z,3.90
2023-09-01T01:16:07.722Z,4.00
2023-09-01T01:16:40.578Z,4.13
2023-09-01T01:17:13.493Z,4.20
2023-09-01T01:17:46.618Z,4.47
2023-09-01T01:18:19.812Z,4.30
2023-09-01T01:18:53.647Z,4.13
2023-09-01T01:19:48.859Z,4.07
2023-09-01T01:20:32.783Z,4.13
2023-09-01T01:21:24.548Z,3.83
2023-09-01T01:22:00.811Z,4.33
2023-09-01T01:22:48.114Z,4.37
2023-09-01T01:23:21.423Z,3.57
2023-09-01T01:23:54.291Z,3.43
2023-09-01T01:24:26.908Z,3.77
2023-09-01T01:24:59.078Z,4.40
2023-09-01T01:25:31.416Z,4.53
2023-09-01T01:26:03.704Z,4.10
2023-09-01T01:26:37.409Z,4.20
2023-09-01T01:27:09.379Z,4.70
2023-09-01T01:27:43.615Z,4.23
2023-09-01T01:28:16.951Z,4.33
2023-09-01T01:28:49.081Z,4.27
2023-09-01T01:29:21.012Z,4.17
2023-09-01T01:29:52.951Z,4.07
2023-09-01T01:30:24.852Z,4.37
2023-09-01T01:30:56.832Z,4.37
2023-09-01T01:31:28.838Z,4.10
2023-09-01T01:32:01.549Z,4.13
2023-09-01T01:32:33.906Z,4.57
2023-09-01T01:33:06.089Z,4.40
2023-09-01T01:33:59.838Z,3.90
2023-09-01T01:34:38.509Z,4.27
2023-09-01T01:35:20.015Z,4.30
2023-09-01T01:36:08.660Z,3.87
2023-09-01T01:37:15.913Z,4.23
2023-09-01T01:38:11.941Z,4.33
2023-09-01T01:38:49.809Z,4.17
2023-09-01T01:39:26.946Z,4.33
2023-09-01T01:40:01.053Z,4.10
2023-09-01T01:40:33.577Z,4.27
2023-09-01T01:41:16.499Z,4.47
2023-09-01T01:41:59.883Z,3.60
2023-09-01T01:42:34.965Z,4.10
2023-09-01T01:43:08.667Z,4.37
2023-09-01T01:43:43.848Z,4.53
2023-09-01T01:44:17.606Z,3.80
2023-09-01T01:44:51.958Z,4.07
2023-09-01T01:45:25.526Z,4.30
2023-09-01T01:45:59.549Z,4.30
2023-09-01T01:46:32.831Z,4.53
2023-09-01T01:47:05.857Z,4.10
2023-09-01T01:47:37.840Z,3.90
2023-09-01T01:48:09.911Z,4.50
2023-09-01T01:48:41.885Z,4.10
2023-09-01T01:49:15.880Z,4.40
2023-09-01T01:49:47.838Z,4.50
2023-09-01T01:50:19.817Z,4.30
2023-09-01T01:50:56.247Z,4.20
2023-09-01T01:51:30.246Z,4.17
2023-09-01T01:52:02.427Z,4.40
2023-09-01T01:52:34.399Z,4.43
2023-09-01T01:53:06.707Z,3.90
2023-09-01T01:53:39.270Z,4.47
2023-09-01T01:54:11.494Z,4.23
2023-09-01T01:54:43.406Z,3.97
2023-09-01T01:55:15.319Z,3.77
2023-09-01T01:55:47.289Z,4.10
2023-09-01T01:56:19.342Z,4.40
2023-09-01T01:56:51.255Z,4.10
2023-09-01T01:57:23.168Z,4.20
2023-09-01T01:57:55.092Z,4.97
2023-09-01T01:58:28.214Z,4.67
2023-09-01T01:59:00.181Z,4.57
2023-09-01T01:59:32.126Z,4.33
2023-09-01T02:00:05.381Z,4.23
2023-09-01T02:00:37.304Z,4.13
2023-09-01T02:01:09.314Z,4.70
2023-09-01T02:01:41.325Z,4.23
2023-09-01T02:02:13.258Z,4.03
2023-09-01T02:02:45.220Z,4.33
2023-09-01T02:03:17.126Z,4.53
2023-09-01T02:03:49.871Z,5.00
2023-09-01T02:04:21.788Z,4.77
2023-09-01T02:04:53.787Z,4.53
2023-09-01T02:05:27.091Z,4.23
2023-09-01T02:05:59.023Z,4.57
2023-09-01T02:06:30.924Z,4.37
2023-09-01T02:07:06.957Z,4.03
2023-09-01T02:07:38.853Z,4.53
2023-09-01T02:08:10.921Z,4.60
2023-09-01T02:08:42.836Z,4.30
2023-09-01T02:09:15.733Z,4.80
2023-09-01T02:09:47.630Z,4.87
2023-09-01T02:10:19.556Z,4.27
2023-09-01T02:10:51.462Z,4.43
2023-09-01T02:11:23.369Z,4.40
2023-09-01T02:11:55.302Z,4.23
2023-09-01T02:12:27.289Z,4.40
2023-09-01T02:12:59.208Z,4.73
2023-09-01T02:13:31.131Z,4.60
2023-09-01T02:14:03.633Z,4.63
2023-09-01T02:14:37.096Z,4.80
2023-09-01T02:15:10.545Z,5.20
2023-09-01T02:15:51.712Z,5.07
2023-09-01T02:16:26.405Z,4.93
2023-09-01T02:17:00.275Z,5.37
2023-09-01T02:17:32.302Z,5.43
2023-09-01T02:18:07.040Z,5.07
2023-09-01T02:18:38.989Z,5.53
2023-09-01T02:19:13.252Z,5.07
2023-09-01T02:19:45.330Z,5.20
2023-09-01T02:20:20.359Z,5.57
2023-09-01T02:20:52.592Z,5.20
2023-09-01T02:21:25.012Z,5.20
2023-09-01T02:21:56.947Z,5.00
2023-09-01T02:22:28.850Z,4.63
2023-09-01T02:23:00.802Z,4.87
2023-09-01T02:23:32.844Z,4.93
2023-09-01T02:24:06.949Z,4.93
2023-09-01T02:24:38.945Z,4.97
2023-09-01T02:25:10.964Z,5.13
2023-09-01T02:25:42.912Z,5.73
2023-09-01T02:26:21.873Z,4.57
2023-09-01T02:26:53.819Z,4.63
2023-09-01T02:27:25.744Z,5.23
2023-09-01T02:27:58.044Z,5.70
2023-09-01T02:28:30.129Z,5.10
2023-09-01T02:29:02.238Z,4.93
2023-09-01T02:29:34.162Z,4.63
2023-09-01T02:30:06.754Z,4.43
2023-09-01T02:30:40.089Z,4.97
2023-09-01T02:31:12.066Z,5.03
2023-09-01T02:31:44.008Z,4.93
2023-09-01T02:32:15.922Z,4.70
2023-09-01T02:32:47.884Z,4.80
2023-09-01T02:33:19.841Z,4.70
2023-09-01T02:33:52.132Z,4.40
2023-09-01T02:34:24.084Z,4.47
2023-09-01T02:34:55.990Z,5.10
2023-09-01T02:35:28.269Z,4.73
2023-09-01T02:36:22.852Z,4.83
2023-09-01T02:36:54.916Z,4.63
2023-09-01T02:37:26.828Z,5.17
2023-09-01T02:37:58.829Z,5.07
2023-09-01T02:38:30.786Z,4.67
2023-09-01T02:39:05.918Z,4.67
2023-09-01T02:39:37.880Z,4.50
2023-09-01T02:40:12.867Z,5.30
2023-09-01T02:40:44.945Z,5.27
2023-09-01T02:41:16.861Z,5.30
2023-09-01T02:41:48.841Z,4.93
2023-09-01T02:42:20.770Z,4.47
2023-09-01T02:42:53.061Z,4.90
2023-09-01T02:43:25.186Z,4.90
2023-09-01T02:43:58.544Z,4.90
2023-09-01T02:44:30.556Z,5.20
2023-09-01T02:45:02.468Z,5.10
2023-09-01T02:45:34.499Z,4.77
2023-09-01T02:46:06.417Z,5.03
2023-09-01T02:46:38.376Z,4.63
2023-09-01T02:47:10.278Z,5.10
2023-09-01T02:47:42.332Z,4.83
2023-09-01T02:48:14.450Z,4.80
2023-09-01T02:48:46.648Z,5.00
2023-09-01T02:49:18.562Z,5.57
2023-09-01T02:49:50.454Z,5.17
2023-09-01T02:50:22.497Z,4.30
2023-09-01T02:50:54.413Z,4.83
2023-09-01T02:51:26.618Z,4.50
2023-09-01T02:51:58.540Z,4.40
2023-09-01T02:52:30.451Z,5.20
2023-09-01T02:53:02.409Z,5.47
2023-09-01T02:53:35.279Z,5.20
2023-09-01T02:54:07.190Z,4.43
2023-09-01T02:54:39.100Z,5.27
2023-09-01T02:55:11.086Z,5.20
2023-09-01T02:55:43.014Z,4.93
2023-09-01T02:56:15.026Z,4.47
2023-09-01T02:56:46.938Z,4.70
2023-09-01T02:57:18.843Z,4.50
2023-09-01T02:57:50.754Z,4.60
2023-09-01T02:58:22.660Z,4.80
2023-09-01T02:58:54.576Z,5.17
2023-09-01T02:59:26.543Z,5.40
2023-09-01T02:59:58.641Z,5.13
2023-09-01T03:00:30.631Z,4.93
2023-09-01T03:01:10.233Z,4.53
2023-09-01T03:01:42.396Z,5.23
2023-09-01T03:02:14.378Z,4.90
2023-09-01T03:02:46.818Z,4.60
2023-09-01T03:03:21.935Z,4.93
2023-09-01T03:03:53.956Z,4.33
2023-09-01T03:04:25.908Z,4.47
2023-09-01T03:04:58.171Z,5.13
2023-09-01T03:05:30.074Z,4.53
2023-09-01T03:06:01.982Z,4.93
2023-09-01T03:06:36.649Z,4.50
2023-09-01T03:07:08.619Z,4.20
2023-09-01T03:07:41.318Z,4.67
2023-09-01T03:08:13.437Z,4.70
2023-09-01T03:08:45.344Z,4.73
2023-09-01T03:09:17.285Z,4.60
2023-09-01T03:09:49.268Z,4.40
2023-09-01T03:10:21.182Z,4.50
2023-09-01T03:10:53.636Z,4.67
2023-09-01T03:11:25.764Z,4.27
2023-09-01T03:11:57.682Z,4.10
2023-09-01T03:12:29.648Z,4.30
2023-09-01T03:13:01.568Z,4.93
2023-09-01T03:13:33.568Z,4.33
2023-09-01T03:14:06.060Z,4.13
2023-09-01T03:14:38.081Z,4.43
2023-09-01T03:15:10.897Z,4.97
2023-09-01T03:15:43.458Z,4.93
2023-09-01T03:16:15.386Z,4.70
2023-09-01T03:16:47.372Z,4.53
2023-09-01T03:17:19.321Z,4.37
2023-09-01T03:17:51.261Z,4.50
2023-09-01T03:18:23.950Z,4.13
2023-09-01T03:19:00.932Z,4.53
2023-09-01T03:19:33.886Z,4.33
2023-09-01T03:20:06.848Z,4.23
2023-09-01T03:20:39.867Z,4.47
2023-09-01T03:21:13.503Z,4.37
2023-09-01T03:21:45.468Z,5.03
2023-09-01T03:22:17.396Z,4.73
2023-09-01T03:22:49.577Z,4.30
2023-09-01T03:23:22.697Z,4.47
2023-09-01T03:23:54.819Z,4.70
2023-09-01T03:24:26.805Z,4.73
2023-09-01T03:24:58.918Z,4.80
2023-09-01T03:25:31.096Z,4.30
2023-09-01T03:26:04.990Z,4.67
2023-09-01T03:26:36.889Z,5.27
2023-09-01T03:27:08.852Z,4.87
2023-09-01T03:27:41.277Z,4.63
2023-09-01T03:28:13.493Z,4.67
2023-09-01T03:28:45.946Z,4.20
2023-09-01T03:29:17.860Z,4.60
2023-09-01T03:29:56.586Z,4.53
2023-09-01T03:30:28.523Z,4.33
2023-09-01T03:31:00.537Z,4.80
2023-09-01T03:31:32.540Z,4.63
2023-09-01T03:32:04.746Z,5.03
2023-09-01T03:32:36.734Z,5.20
2023-09-01T03:33:09.471Z,4.90
2023-09-01T03:33:42.002Z,4.87
2023-09-01T03:34:13.907Z,4.53
2023-09-01T03:34:45.825Z,4.70
2023-09-01T03:35:17.774Z,4.20
2023-09-01T03:35:49.689Z,3.90
2023-09-01T03:36:21.784Z,3.93
2023-09-01T03:36:54.814Z,4.57
2023-09-01T03:37:26.888Z,4.77
2023-09-01T03:37:58.818Z,4.97
2023-09-01T03:38:31.767Z,4.83
2023-09-01T03:39:08.794Z,4.83
2023-09-01T03:39:40.781Z,5.00
2023-09-01T03:40:12.786Z,5.00
2023-09-01T03:40:44.690Z,5.33
2023-09-01T03:41:16.600Z,5.20
2023-09-01T03:41:48.520Z,5.67
2023-09-01T03:42:20.419Z,5.30
2023-09-01T03:42:52.392Z,5.13
2023-09-01T03:43:24.336Z,5.43
2023-09-01T03:43:56.291Z,5.17
2023-09-01T03:44:28.310Z,5.20
2023-09-01T03:45:00.248Z,5.23
2023-09-01T03:45:32.174Z,5.30
2023-09-01T03:46:04.347Z,5.20
2023-09-01T03:46:36.342Z,5.17
2023-09-01T03:47:11.130Z,5.30
2023-09-01T03:47:43.313Z,5.13
2023-09-01T03:48:15.808Z,4.83
2023-09-01T03:48:47.984Z,4.70
2023-09-01T03:49:20.698Z,4.77
2023-09-01T03:49:52.618Z,4.67
2023-09-01T03:50:24.532Z,4.80
2023-09-01T03:51:15.193Z,4.50
2023-09-01T03:51:47.096Z,5.03
2023-09-01T03:52:19.001Z,5.40
2023-09-01T03:52:50.937Z,4.83
2023-09-01T03:53:22.867Z,4.97
2023-09-01T03:53:54.782Z,5.23
2023-09-01T03:54:26.863Z,5.33
2023-09-01T03:55:01.066Z,5.27
2023-09-01T03:55:33.472Z,5.23
2023-09-01T03:56:10.969Z,5.50
2023-09-01T03:56:42.951Z,5.30
2023-09-01T03:57:16.769Z,5.70
2023-09-01T03:57:48.725Z,5.10
2023-09-01T03:58:20.639Z,5.03
2023-09-01T03:58:52.579Z,5.27
2023-09-01T03:59:24.473Z,5.10
2023-09-01T03:59:56.843Z,5.13
2023-09-01T04:00:28.825Z,5.00
2023-09-01T04:01:00.732Z,5.10
2023-09-01T04:01:33.176Z,5.23
2023-09-01T04:02:05.570Z,4.87
2023-09-01T04:02:37.708Z,5.00
2023-09-01T04:03:09.693Z,5.40
2023-09-01T04:03:42.388Z,5.47
2023-09-01T04:04:14.888Z,5.20
2023-09-01T04:04:46.858Z,4.73
2023-09-01T04:05:18.766Z,5.53
2023-09-01T04:05:50.735Z,4.97
2023-09-01T04:06:22.686Z,4.87
2023-09-01T04:06:54.827Z,5.13
2023-09-01T04:07:26.720Z,4.97
2023-09-01T04:07:58.625Z,5.03
2023-09-01T04:08:30.542Z,5.43
2023-09-01T04:09:02.444Z,5.33
2023-09-01T04:09:34.384Z,4.80
2023-09-01T04:10:07.683Z,5.50
2023-09-01T04:10:40.353Z,5.67
2023-09-01T04:11:12.404Z,4.90
2023-09-01T04:11:44.321Z,5.17
2023-09-01T04:12:16.245Z,4.90
2023-09-01T04:12:48.179Z,5.30
2023-09-01T04:13:20.085Z,5.27
2023-09-01T04:13:51.997Z,4.83
2023-09-01T04:14:23.931Z,4.60
2023-09-01T04:14:55.923Z,4.67
2023-09-01T04:15:27.900Z,5.63
2023-09-01T04:16:00.277Z,5.33
2023-09-01T04:16:32.306Z,4.93
2023-09-01T04:17:05.560Z,4.77
2023-09-01T04:17:37.514Z,4.57
2023-09-01T04:18:09.443Z,4.83
2023-09-01T04:18:41.369Z,5.10
2023-09-01T04:19:13.379Z,5.60
2023-09-01T04:19:50.918Z,5.07
2023-09-01T04:20:22.822Z,4.87
2023-09-01T04:20:55.989Z,4.97
2023-09-01T04:21:27.950Z,5.43
2023-09-01T04:21:59.858Z,5.20
2023-09-01T04:22:33.411Z,5.30
2023-09-01T04:23:05.302Z,5.67
2023-09-01T04:23:40.658Z,5.17
2023-09-01T04:24:12.658Z,5.27
2023-09-01T04:24:44.721Z,5.37
2023-09-01T04:25:16.681Z,5.43
2023-09-01T04:25:49.203Z,5.63
2023-09-01T04:26:21.308Z,5.47
2023-09-01T04:26:53.229Z,4.87
2023-09-01T04:27:25.162Z,4.93
2023-09-01T04:27:57.125Z,5.17
2023-09-01T04:28:29.039Z,4.77
2023-09-01T04:29:01.422Z,5.30
2023-09-01T04:29:33.341Z,5.30
2023-09-01T04:30:10.580Z,5.27
2023-09-01T04:30:46.332Z,5.47
2023-09-01T04:31:29.231Z,4.77
2023-09-01T04:32:01.297Z,5.43
2023-09-01T04:32:33.294Z,5.43
2023-09-01T04:33:05.965Z,5.57
2023-09-01T04:33:37.915Z,5.53
2023-09-01T04:34:09.874Z,5.40
2023-09-01T04:34:41.788Z,6.00
2023-09-01T04:35:14.199Z,6.07
2023-09-01T04:35:46.204Z,5.63
2023-09-01T04:36:18.189Z,5.67
2023-09-01T04:36:51.321Z,5.50
2023-09-01T04:37:23.261Z,5.47
2023-09-01T04:37:55.168Z,5.73
2023-09-01T04:38:27.090Z,5.70
2023-09-01T04:38:58.998Z,5.33
2023-09-01T04:39:30.922Z,5.47
2023-09-01T04:40:07.326Z,6.20
2023-09-01T04:40:39.276Z,5.40
2023-09-01T04:41:11.262Z,5.37
2023-09-01T04:41:43.170Z,5.60
2023-09-01T04:42:15.070Z,5.63
2023-09-01T04:42:46.987Z,5.47
2023-09-01T04:43:18.895Z,6.13
2023-09-01T04:43:50.802Z,6.27
2023-09-01T04:44:23.254Z,6.20
2023-09-01T04:44:55.152Z,6.07
2023-09-01T04:45:27.093Z,6.03
2023-09-01T04:45:59.556Z,6.60
2023-09-01T04:46:31.614Z,6.23
2023-09-01T04:47:04.292Z,6.47
2023-09-01T04:47:36.811Z,6.33
2023-09-01T04:48:08.775Z,6.50
2023-09-01T04:48:41.717Z,6.20
2023-09-01T04:49:13.616Z,5.23
2023-09-01T04:49:45.554Z,5.60
2023-09-01T04:50:17.516Z,5.67
2023-09-01T04:50:49.851Z,6.37
2023-09-01T04:51:22.999Z,5.60
2023-09-01T04:51:55.002Z,6.20
2023-09-01T04:52:37.371Z,6.10
2023-09-01T04:53:15.362Z,5.90
2023-09-01T04:53:47.281Z,5.20
2023-09-01T04:54:19.171Z,4.77
2023-09-01T04:54:51.181Z,5.37
2023-09-01T04:55:23.119Z,5.47
2023-09-01T04:55:55.032Z,5.73
2023-09-01T04:56:26.944Z,5.60
2023-09-01T04:56:58.936Z,5.47
2023-09-01T04:57:31.637Z,5.37
2023-09-01T04:58:03.790Z,5.37
2023-09-01T04:58:35.701Z,5.30
2023-09-01T04:59:07.646Z,5.43
2023-09-01T04:59:39.607Z,6.37
2023-09-01T05:00:18.102Z,6.47
2023-09-01T05:00:53.539Z,5.87
2023-09-01T05:01:25.696Z,6.87
2023-09-01T05:01:59.893Z,6.80
2023-09-01T05:02:31.842Z,6.30
2023-09-01T05:03:04.163Z,6.40
2023-09-01T05:03:36.254Z,6.20
2023-09-01T05:04:11.164Z,6.13
2023-09-01T05:04:43.215Z,5.97
2023-09-01T05:05:15.695Z,5.87
2023-09-01T05:05:48.575Z,6.10
2023-09-01T05:06:20.516Z,5.93
2023-09-01T05:06:52.427Z,6.27
2023-09-01T05:07:24.348Z,6.03
2023-09-01T05:07:56.245Z,6.43
2023-09-01T05:08:28.159Z,6.30
2023-09-01T05:09:00.156Z,6.27
2023-09-01T05:09:33.396Z,5.87
2023-09-01T05:10:07.012Z,5.67
2023-09-01T05:10:38.928Z,5.60
2023-09-01T05:11:10.906Z,5.23
2023-09-01T05:11:42.819Z,5.57
2023-09-01T05:12:14.874Z,5.77
2023-09-01T05:12:46.807Z,5.73
2023-09-01T05:13:18.771Z,5.93
2023-09-01T05:13:50.693Z,5.33
2023-09-01T05:14:22.589Z,5.97
2023-09-01T05:14:54.505Z,6.23
2023-09-01T05:15:26.410Z,6.33
2023-09-01T05:15:58.313Z,5.93
2023-09-01T05:16:30.274Z,5.57
2023-09-01T05:17:02.412Z,5.30
2023-09-01T05:17:34.693Z,5.87
2023-09-01T05:18:06.753Z,5.10
2023-09-01T05:18:38.670Z,4.97
2023-09-01T05:19:10.597Z,4.97
2023-09-01T05:19:42.547Z,5.17
2023-09-01T05:20:14.452Z,5.47
2023-09-01T05:20:49.636Z,5.47
2023-09-01T05:21:21.586Z,5.93
2023-09-01T05:21:53.611Z,5.70
2023-09-01T05:22:26.029Z,5.43
2023-09-01T05:22:58.949Z,5.67
2023-09-01T05:23:33.477Z,5.20
2023-09-01T05:24:05.770Z,5.70
2023-09-01T05:24:37.824Z,5.67
2023-09-01T05:25:09.811Z,5.20
2023-09-01T05:25:41.821Z,5.27
2023-09-01T05:26:13.734Z,5.27
2023-09-01T05:26:45.702Z,5.27
2023-09-01T05:27:20.926Z,5.40
2023-09-01T05:27:52.854Z,5.10
2023-09-01T05:28:24.769Z,5.27
2023-09-01T05:28:56.689Z,6.33
2023-09-01T05:29:31.658Z,6.63
2023-09-01T05:30:03.757Z,5.70
2023-09-01T05:30:38.303Z,5.63
2023-09-01T05:31:10.328Z,5.83
2023-09-01T05:31:42.316Z,5.97
2023-09-01T05:32:14.282Z,5.80
2023-09-01T05:32:46.449Z,6.50
2023-09-01T05:33:18.405Z,6.13
2023-09-01T05:33:50.342Z,6.17
2023-09-01T05:34:22.322Z,6.20
2023-09-01T05:34:54.220Z,5.80
2023-09-01T05:35:26.198Z,6.03
2023-09-01T05:35:58.354Z,5.70
2023-09-01T05:36:30.271Z,5.80
2023-09-01T05:37:02.258Z,6.00
2023-09-01T05:37:34.216Z,6.43
2023-09-01T05:38:06.136Z,6.27
2023-09-01T05:38:38.042Z,5.93
2023-09-01T05:39:09.963Z,5.80
2023-09-01T05:39:42.761Z,5.83
2023-09-01T05:40:14.725Z,6.33
2023-09-01T05:40:56.989Z,6.13
2023-09-01T05:41:28.973Z,5.77
2023-09-01T05:42:00.875Z,5.40
2023-09-01T05:42:32.775Z,6.40
2023-09-01T05:43:04.943Z,6.37
2023-09-01T05:43:36.881Z,6.03
2023-09-01T05:44:08.947Z,6.87
2023-09-01T05:44:40.890Z,7.17
2023-09-01T05:45:12.906Z,6.53
2023-09-01T05:45:45.029Z,6.07
2023-09-01T05:46:16.991Z,6.43
2023-09-01T05:46:48.949Z,7.00
2023-09-01T05:47:21.067Z,6.90
2023-09-01T05:47:53.854Z,6.70
2023-09-01T05:48:26.280Z,6.73
2023-09-01T05:48:58.210Z,7.37
2023-09-01T05:49:31.972Z,6.53
2023-09-01T05:50:05.389Z,6.67
2023-09-01T05:50:37.314Z,7.50
2023-09-01T05:51:09.283Z,7.27
2023-09-01T05:51:41.192Z,7.27
2023-09-01T05:52:13.098Z,6.37
2023-09-01T05:52:45.006Z,6.57
2023-09-01T05:53:17.237Z,7.03
2023-09-01T05:53:49.152Z,6.70
2023-09-01T05:54:21.083Z,6.33
2023-09-01T05:54:53.024Z,6.90
2023-09-01T05:55:25.186Z,7.07
2023-09-01T05:55:57.180Z,7.00
2023-09-01T05:56:29.142Z,7.03
2023-09-01T05:57:01.076Z,6.83
2023-09-01T05:57:33.013Z,7.40
2023-09-01T05:58:04.989Z,7.00
2023-09-01T05:58:37.701Z,6.70
2023-09-01T05:59:09.623Z,6.97
2023-09-01T05:59:42.001Z,7.00
2023-09-01T06:00:14.355Z,6.93
2023-09-01T06:00:46.315Z,6.77
2023-09-01T06:01:18.494Z,6.97
2023-09-01T06:01:50.633Z,6.40
2023-09-01T06:02:22.630Z,6.73
2023-09-01T06:02:54.614Z,6.80
2023-09-01T06:03:26.700Z,6.63
2023-09-01T06:03:58.759Z,6.70
2023-09-01T06:04:30.731Z,6.53
2023-09-01T06:05:02.641Z,6.30
2023-09-01T06:05:34.561Z,6.53
2023-09-01T06:06:08.579Z,6.23
2023-09-01T06:06:41.214Z,6.83
2023-09-01T06:07:13.465Z,6.57
2023-09-01T06:07:45.426Z,6.70
2023-09-01T06:08:17.461Z,6.70
2023-09-01T06:08:49.564Z,6.17
2023-09-01T06:09:21.471Z,6.50
2023-09-01T06:09:53.410Z,7.30
2023-09-01T06:10:25.336Z,6.70
2023-09-01T06:11:09.584Z,6.80
2023-09-01T06:11:41.737Z,6.27
2023-09-01T06:12:15.903Z,7.10
2023-09-01T06:12:48.157Z,6.33
2023-09-01T06:13:20.087Z,6.23
2023-09-01T06:13:51.987Z,6.77
2023-09-01T06:14:23.895Z,6.63
2023-09-01T06:14:55.837Z,6.07
2023-09-01T06:15:27.755Z,6.03
2023-09-01T06:15:59.721Z,5.80
2023-09-01T06:16:31.724Z,5.87
2023-09-01T06:17:04.153Z,5.90
2023-09-01T06:17:46.171Z,6.93
2023-09-01T06:18:18.884Z,5.87
2023-09-01T06:18:50.936Z,5.93
2023-09-01T06:19:22.898Z,6.00
2023-09-01T06:19:54.900Z,5.43
2023-09-01T06:20:26.806Z,5.93
2023-09-01T06:20:58.736Z,5.77
2023-09-01T06:21:32.197Z,5.73
2023-09-01T06:22:04.278Z,5.50
2023-09-01T06:22:36.184Z,6.20
2023-09-01T06:23:08.149Z,5.90
2023-09-01T06:23:45.736Z,6.20
2023-09-01T06:24:17.685Z,5.67
2023-09-01T06:24:49.603Z,5.40
2023-09-01T06:25:21.760Z,5.93
2023-09-01T06:25:53.674Z,6.43
2023-09-01T06:26:25.584Z,5.43
2023-09-01T06:26:57.514Z,5.70
2023-09-01T06:27:29.461Z,6.10
2023-09-01T06:28:01.363Z,6.10
2023-09-01T06:28:34.122Z,5.53
2023-09-01T06:29:06.228Z,6.17
2023-09-01T06:29:38.143Z,6.00
2023-09-01T06:30:10.122Z,5.43
2023-09-01T06:30:42.625Z,5.57
2023-09-01T06:31:17.290Z,6.30
2023-09-01T06:31:49.239Z,6.87
2023-09-01T06:32:21.148Z,6.50
2023-09-01T06:32:53.184Z,6.50
2023-09-01T06:33:25.164Z,7.57
2023-09-01T06:33:57.078Z,7.93
2023-09-01T06:34:29.054Z,6.80
2023-09-01T06:35:01.062Z,7.30
2023-09-01T06:35:32.963Z,7.77
2023-09-01T06:36:06.523Z,7.07
2023-09-01T06:36:38.442Z,6.53
2023-09-01T06:37:10.356Z,6.57
2023-09-01T06:37:42.273Z,6.57
2023-09-01T06:38:14.291Z,5.97
2023-09-01T06:38:46.542Z,5.77
2023-09-01T06:39:19.491Z,5.53
2023-09-01T06:39:51.392Z,6.07
2023-09-01T06:40:23.366Z,5.97
2023-09-01T06:40:55.283Z,5.53
2023-09-01T06:41:27.225Z,5.67
2023-09-01T06:41:59.258Z,5.70
2023-09-01T06:42:31.194Z,5.57
2023-09-01T06:43:03.811Z,5.57
2023-09-01T06:43:35.760Z,5.20
2023-09-01T06:44:08.886Z,5.30
2023-09-01T06:44:40.981Z,5.33
2023-09-01T06:45:12.984Z,5.43
2023-09-01T06:45:44.896Z,5.43
2023-09-01T06:46:16.871Z,5.23
2023-09-01T06:46:50.114Z,5.50
2023-09-01T06:47:22.071Z,5.57
2023-09-01T06:47:56.684Z,5.57
2023-09-01T06:48:30.706Z,4.87
2023-09-01T06:49:03.270Z,5.53
2023-09-01T06:49:35.183Z,5.73
2023-09-01T06:50:07.454Z,5.57
2023-09-01T06:50:39.899Z,6.07
2023-09-01T06:51:11.927Z,5.83
2023-09-01T06:51:44.023Z,5.23
2023-09-01T06:52:17.709Z,5.17
2023-09-01T06:52:49.671Z,4.80
2023-09-01T06:53:21.570Z,4.83
2023-09-01T06:53:53.484Z,5.63
2023-09-01T06:54:25.394Z,5.77
2023-09-01T06:54:57.372Z,5.33
2023-09-01T06:55:29.289Z,5.20
2023-09-01T06:56:01.289Z,5.67
2023-09-01T06:56:33.210Z,5.37
2023-09-01T06:57:05.412Z,5.53
2023-09-01T06:57:37.319Z,5.07
2023-09-01T06:58:09.323Z,5.30
2023-09-01T06:58:41.267Z,5.60
2023-09-01T06:59:13.192Z,5.27
2023-09-01T06:59:45.193Z,5.30
2023-09-01T07:00:17.585Z,5.10
2023-09-01T07:00:52.698Z,5.13
2023-09-01T07:01:24.824Z,5.03
2023-09-01T07:01:56.875Z,4.87
2023-09-01T07:02:28.937Z,4.87
2023-09-01T07:03:00.951Z,5.37
2023-09-01T07:03:32.942Z,5.03
2023-09-01T07:04:06.564Z,4.63
2023-09-01T07:04:38.502Z,4.27
2023-09-01T07:05:10.411Z,3.87
2023-09-01T07:05:42.324Z,3.50
2023-09-01T07:06:14.322Z,4.07
2023-09-01T07:06:46.228Z,4.07
2023-09-01T07:07:18.169Z,3.97
2023-09-01T07:07:53.269Z,4.07
2023-09-01T07:08:25.725Z,4.17
2023-09-01T07:08:57.639Z,3.23
2023-09-01T07:09:29.633Z,3.67
2023-09-01T07:10:01.650Z,4.10
2023-09-01T07:10:33.589Z,3.63
2023-09-01T07:11:07.567Z,3.30
2023-09-01T07:11:39.509Z,3.20
2023-09-01T07:12:11.419Z,3.20
2023-09-01T07:12:43.445Z,3.33
2023-09-01T07:13:15.371Z,3.70
2023-09-01T07:13:48.162Z,3.80
2023-09-01T07:14:20.336Z,4.27
2023-09-01T07:14:52.258Z,4.17
2023-09-01T07:15:24.188Z,3.73
2023-09-01T07:15:56.127Z,3.70
2023-09-01T07:16:28.017Z,3.57
2023-09-01T07:16:59.926Z,4.00
2023-09-01T07:17:31.906Z,4.10
2023-09-01T07:18:04.773Z,3.90
2023-09-01T07:18:36.733Z,3.93
2023-09-01T07:19:08.645Z,3.70